Tiempo atmosférico en la estación meteorológica de Tamarite De Litera, La Melusa, Huesca (218 m.)



Fecha
DESCASC
Temp. máxima en grados centígrados (hora)
DESCASC
Temp. mínima en grados centígrados (hora)
DESCASC
Temp. media en grados centígrados
DESCASC
Racha de viento máxima en m/sg (hora)
DESCASC
Velocidad máxima media en intervalos de 10 minutos(hora)
DESCASC
Precipitaciones diarias en mm
DESCASC
Precipitaciones de 00:00 a 06:00 en mm
DESCASC
Precipitaciones de 06:00 a 12:00 en mm
DESCASC
Precipitaciones de 12:00 a 18:00 en mm
DESCASC
Precipitaciones de 18:00 a 24:00 en mm
DESCASC

Gráficas

Temp. máximas Temp. mínimas Temp. medias Precipitaciones Rachas de viento máximas Velocidades máximas media en intervalos de 10 minutos

Datos horarios

Fecha y hora oficial Temperatura (ºC) Velocidad del viento (km/h) Dirección del viento Racha (km/h) Dirección de racha Precipitación (mm) Presión (hPa) Tendencia (hPa) Humedad (%)
2020-03-31 23:00:00 7.9 4 Sudoeste 8 Sudoeste 0 -- -- 98
2020-03-31 22:00:00 8.1 3 Sudoeste 5 Sudoeste 0.4 -- -- 98
2020-03-31 21:00:00 8 3 Sudoeste 5 Sudoeste 0.8 -- -- 97
2020-03-31 20:00:00 8 4 Sur 7 Sur 1 -- -- 97
2020-03-31 19:00:00 8.3 4 Sur 8 Sudeste 2 -- -- 96
2020-03-31 18:00:00 9.4 4 Sur 7 Sur 1 -- -- 95
2020-03-31 17:00:00 9.6 3 Sur 5 Sur 0.8 -- -- 96
2020-03-31 16:00:00 8.6 3 Noroeste 10 Norte 2 -- -- 95
2020-03-31 15:00:00 7.7 2 Noroeste 11 Sur 1 -- -- 93
2020-03-31 14:00:00 7.5 6 Sur 12 Sudoeste 0 -- -- 92
2020-03-31 13:00:00 7 2 Noroeste 8 Oeste 0 -- -- 93
2020-03-31 12:00:00 6 2 Oeste 8 Sur 0 -- -- 94
2020-03-31 11:00:00 5.5 5 Sudoeste 10 Sudoeste 0 -- -- 95
2020-03-31 10:00:00 5.1 0 Calma 5 Noroeste 0 -- -- 97
2020-03-31 09:00:00 4.3 3 Noroeste 9 Oeste 0.2 -- -- 97
2020-03-31 08:00:00 3.8 4 Noroeste 10 Oeste 1.4 -- -- 96
2020-03-31 07:00:00 3.9 6 Oeste 11 Oeste 0.8 -- -- 96
2020-03-31 06:00:00 3.9 5 Noroeste 12 Noroeste 0.8 -- -- 94
2020-03-31 05:00:00 4.3 7 Oeste 12 Oeste 1 -- -- 92
2020-03-31 04:00:00 4.5 4 Oeste 11 Oeste 0.2 -- -- 92
2020-03-31 03:00:00 4.8 5 Oeste 10 Oeste 0 -- -- 91
2020-03-31 02:00:00 4.9 5 Noroeste 10 Noroeste 0.2 -- -- 91
2020-03-31 01:00:00 5.2 6 Noroeste 11 Noroeste 0 -- -- 86
2020-03-31 00:00:00 5.6 3 Noroeste 5 Noroeste 0 -- -- 84
2020-03-30 23:00:00 5.8 3 Nordeste 8 Este 0 -- -- 87
2020-03-30 22:00:00 5.8 5 Nordeste 14 Nordeste 0 -- -- 80
2020-03-30 21:00:00 6.7 11 Este 17 Este 0 -- -- 68
2020-03-30 20:00:00 7.5 9 Sudeste 17 Sudeste 0 -- -- 60
2020-03-30 19:00:00 8.9 7 Sudeste 15 Sudeste 0 -- -- 50
2020-03-30 18:00:00 9.9 10 Sudeste 17 Sudeste 0 -- -- 48
2020-03-30 17:00:00 10.4 9 Sudeste 21 Sudeste 0 -- -- 45
2020-03-30 16:00:00 9.9 8 Sur 15 Sur 0 -- -- 46
2020-03-30 15:00:00 8.7 10 Oeste 18 Sudoeste 0 -- -- 46
2020-03-30 14:00:00 8.1 10 Sudoeste 20 Sudoeste 0 -- -- 54
2020-03-30 13:00:00 8.5 8 Sudoeste 19 Sudoeste 0 -- -- 54
2020-03-30 12:00:00 7.1 8 Oeste 18 Oeste 0 -- -- 59
2020-03-30 11:00:00 6.4 9 Oeste 21 Sudoeste 0 -- -- 66
2020-03-30 10:00:00 5.8 12 Oeste 25 Oeste 0 -- -- 71
2020-03-30 09:00:00 5.4 8 Sudoeste 14 Noroeste 0 -- -- 79
2020-03-30 08:00:00 5.1 8 Oeste 21 Oeste 0 -- -- 82
2020-03-30 07:00:00 5.3 6 Oeste 14 Sudoeste 0 -- -- 91
2020-03-30 06:00:00 4.7 5 Sur 10 Sudoeste 0 -- -- 89
2020-03-30 05:00:00 5.2 6 Sudoeste 11 Sudoeste 0 -- -- 95
2020-03-30 04:00:00 3.1 4 Sudeste 7 Este 0 -- -- 94
2020-03-30 03:00:00 4.1 0 Calma 11 Sudoeste 0 -- -- 91
2020-03-30 02:00:00 4.9 3 Sudoeste 6 Sudoeste 0 -- -- 90
2020-03-30 01:00:00 7.3 2 Sudoeste 16 Sudoeste 0 -- -- 82
2020-03-30 00:00:00 8.4 11 Sudoeste 17 Sudoeste 0 -- -- 80
2020-03-29 23:00:00 9.9 9 Sudoeste 19 Sudoeste 0 -- -- 73
2020-03-29 22:00:00 11.3 7 Sudoeste 14 Sudoeste 0 -- -- 68
2020-03-29 21:00:00 13.2 11 Oeste 18 Oeste 0 -- -- 61
2020-03-29 20:00:00 16.4 12 Oeste 22 Oeste 0 -- -- 50
2020-03-29 19:00:00 19.1 14 Oeste 26 Sudoeste 0 -- -- 40
2020-03-29 18:00:00 20 10 Oeste 21 Sudoeste 0 -- -- 39
2020-03-29 17:00:00 19.6 10 Oeste 23 Sudoeste 0 -- -- 42
2020-03-29 16:00:00 18.7 12 Sudoeste 22 Oeste 0 -- -- 44
2020-03-29 15:00:00 17.4 13 Oeste 26 Oeste 0 -- -- 48
2020-03-29 14:00:00 16.2 10 Oeste 21 Oeste 0 -- -- 55
2020-03-29 13:00:00 14.7 7 Sudoeste 14 Sudoeste 0 -- -- 60
2020-03-29 12:00:00 12.4 5 Sudoeste 15 Sur 0 -- -- 66
2020-03-29 11:00:00 10.3 4 Sudoeste 8 Oeste 0 -- -- 79
2020-03-29 10:00:00 8.1 2 Nordeste 6 Nordeste 0 -- -- 89
2020-03-29 09:00:00 4.8 3 Norte 4 Nordeste 0 -- -- 99
2020-03-29 08:00:00 2.4 0 Calma 5 Este 0 -- -- 96
2020-03-29 07:00:00 2.4 3 Este 4 Este 0 -- -- 94
2020-03-29 06:00:00 3.4 0 Calma 6 Oeste 0 -- -- 94
2020-03-29 05:00:00 4.9 0 Calma 3 Oeste 0 -- -- 93
2020-03-29 03:00:00 8.1 3 Noroeste 5 Noroeste 0 -- -- 90
2020-03-29 01:00:00 9.3 0 Calma 3 Este 0 -- -- 90
2020-03-29 00:00:00 9.3 3 Norte 5 Este 0 -- -- 87
2020-03-28 23:00:00 9.8 5 Este 8 Este 0 -- -- 85
2020-03-28 22:00:00 10.7 3 Oeste 5 Oeste 0 -- -- 85
2020-03-28 21:00:00 11.7 3 Oeste 6 Sudoeste 0 -- -- 81
2020-03-28 20:00:00 13.4 2 Sudoeste 8 Sudoeste 0 -- -- 66
2020-03-28 19:00:00 16.1 4 Sur 12 Sudeste 0 -- -- 54
2020-03-28 18:00:00 17.5 6 Sur 15 Sur 0 -- -- 48
2020-03-28 17:00:00 18 9 Sur 17 Sudoeste 0 -- -- 44
2020-03-28 16:00:00 18.2 7 Sur 18 Sudoeste 0 -- -- 43
2020-03-28 15:00:00 17.7 7 Sudoeste 15 Sudoeste 0 -- -- 44
2020-03-28 14:00:00 16.8 4 Oeste 12 Sudoeste 0 -- -- 50
2020-03-28 13:00:00 15.9 7 Sudoeste 15 Oeste 0 -- -- 50
2020-03-28 12:00:00 14.2 7 Sur 16 Sudoeste 0 -- -- 62
2020-03-28 11:00:00 12.8 6 Sur 12 Sur 0 -- -- 70
2020-03-28 10:00:00 9.9 3 Sudeste 7 Sudeste 0 -- -- 80
2020-03-28 09:00:00 7.4 0 Calma 4 Oeste 0 -- -- 91
2020-03-28 08:00:00 5.8 2 Noroeste 4 Noroeste 0 -- -- 95
2020-03-28 07:00:00 5 0 Calma 5 Oeste 0 -- -- 94
2020-03-28 06:00:00 5.1 3 Norte 5 Noroeste 0 -- -- 92
2020-03-28 05:00:00 5.9 3 Norte 6 Norte 0 -- -- 90
2020-03-28 04:00:00 7.6 0 Calma 4 Noroeste 0 -- -- 90
2020-03-28 03:00:00 7.6 2 Sudeste 5 Norte 0 -- -- 89
2020-03-28 02:00:00 7.5 2 Noroeste 5 Nordeste 0 -- -- 88
2020-03-28 01:00:00 7.7 2 Nordeste 8 Nordeste 0 -- -- 84
2020-03-28 00:00:00 7.9 5 Nordeste 14 Este 0 -- -- 83
2020-03-27 23:00:00 7.8 4 Nordeste 10 Nordeste 0 -- -- 83
2020-03-27 22:00:00 7.7 9 Nordeste 13 Nordeste 0 -- -- 83
2020-03-27 21:00:00 8.4 4 Nordeste 9 Norte 0 -- -- 81
2020-03-27 20:00:00 10.8 4 Este 5 Este 0 -- -- 68
2020-03-27 19:00:00 12.9 0 Calma 8 Sudoeste 0 -- -- 52
2020-03-27 18:00:00 13.7 6 Sudoeste 13 Sur 0 -- -- 46
2020-03-27 17:00:00 14 10 Sudoeste 18 Sudoeste 0 -- -- 48
2020-03-27 16:00:00 14 10 Sudoeste 18 Oeste 0 -- -- 47
2020-03-27 15:00:00 13.8 9 Sudoeste 21 Oeste 0 -- -- 44
2020-03-27 14:00:00 13.1 8 Oeste 19 Sur 0 -- -- 53
2020-03-27 13:00:00 12.2 11 Oeste 33 Sudoeste 0 -- -- 56
2020-03-27 12:00:00 11 9 Sudoeste 19 Sudoeste 0 -- -- 63
2020-03-27 11:00:00 9.1 4 Oeste 9 Sur 0 -- -- 75
2020-03-27 10:00:00 6.4 4 Sur 8 Sur 0 -- -- 84
2020-03-27 09:00:00 3.5 3 Sudoeste 6 Sur 0 -- -- 96
2020-03-27 08:00:00 0.7 2 Sur 4 Sudeste 0 -- -- 99
2020-03-27 07:00:00 -1.5 0 Calma 3 Norte 0 -- -- 97
2020-03-27 06:00:00 -1.1 0 Calma 6 Oeste 0 -- -- 97
2020-03-27 05:00:00 -1.2 3 Norte 5 Norte 0 -- -- 96
2020-03-27 04:00:00 -0.6 0 Calma 4 Noroeste 0 -- -- 96
2020-03-27 03:00:00 -0.2 0 Calma 4 Norte 0 -- -- 96
2020-03-27 02:00:00 0.6 3 Oeste 6 Sudoeste 0 -- -- 95
2020-03-27 01:00:00 1.5 4 Sudeste 12 Noroeste 0 -- -- 95
2020-03-27 00:00:00 1.9 6 Noroeste 9 Noroeste 0 -- -- 94
2020-03-26 23:00:00 2.9 5 Norte 9 Norte 0 -- -- 91
2020-03-26 22:00:00 4.3 5 Noroeste 13 Este 0 -- -- 88
2020-03-26 21:00:00 5.8 12 Este 21 Sudeste 0 -- -- 82
2020-03-26 20:00:00 6.8 3 Sur 19 Este 0 -- -- 80
2020-03-26 19:00:00 7.2 17 Este 38 Este 0 -- -- 77
2020-03-26 18:00:00 8.8 29 Este 42 Este 0 -- -- 71
2020-03-26 17:00:00 9.5 25 Este 45 Este 0 -- -- 69
2020-03-26 16:00:00 10.8 25 Este 40 Este 0 -- -- 68
2020-03-26 15:00:00 12.5 20 Nordeste 32 Nordeste 0 -- -- 56
2020-03-26 14:00:00 12.9 15 Nordeste 26 Nordeste 0 -- -- 59
2020-03-26 13:00:00 12.1 2 Nordeste 19 Sudeste 0 -- -- 63
2020-03-26 12:00:00 11.9 11 Este 18 Este 0 -- -- 65
2020-03-26 11:00:00 10.2 5 Sur 14 Sudeste 0 -- -- 77
2020-03-26 10:00:00 9 4 Oeste 12 Sudoeste 0 -- -- 76
2020-03-26 09:00:00 6.5 5 Oeste 10 Oeste 0 -- -- 88
2020-03-26 08:00:00 3.9 4 Sudoeste 9 Norte 0 -- -- 95
2020-03-26 07:00:00 3.1 5 Norte 12 Sudoeste 0 -- -- 92
2020-03-26 06:00:00 5.4 6 Oeste 9 Oeste 0 -- -- 91
2020-03-26 05:00:00 6 3 Noroeste 11 Oeste 0 -- -- 88
2020-03-26 04:00:00 6.9 5 Oeste 10 Oeste 0 -- -- 90
2020-03-26 03:00:00 7.2 2 Oeste 6 Noroeste 0 -- -- 90
2020-03-26 02:00:00 7.3 4 Noroeste 8 Noroeste 0 -- -- 88
2020-03-26 01:00:00 7.6 3 Oeste 5 Oeste 0 -- -- 89
2020-03-26 00:00:00 7.7 0 Calma 3 Sudoeste 0 -- -- 89
2020-03-25 23:00:00 7.6 0 Calma 6 Norte 0 -- -- 87
2020-03-25 22:00:00 7.7 4 Norte 7 Norte 0 -- -- 87
2020-03-25 21:00:00 7.8 0 Calma 6 Norte 0 -- -- 83
2020-03-25 20:00:00 8.3 4 Noroeste 5 Noroeste 0 -- -- 79
2020-03-25 19:00:00 8.9 3 Noroeste 5 Sudoeste 0 -- -- 74
2020-03-25 18:00:00 9.5 3 Oeste 6 Oeste 0 -- -- 67
2020-03-25 17:00:00 10 3 Sudoeste 9 Nordeste 0 -- -- 63
2020-03-25 16:00:00 10.3 4 Este 14 Este 0 -- -- 62
2020-03-25 15:00:00 9.1 9 Este 19 Este 0 -- -- 68
2020-03-25 14:00:00 7.9 12 Este 28 Este 0 -- -- 73
2020-03-25 13:00:00 7.2 19 Este 27 Este 0 -- -- 75
2020-03-25 12:00:00 7.2 18 Este 32 Este 0 -- -- 76
2020-03-25 11:00:00 6.4 18 Este 28 Este 0 -- -- 78
2020-03-25 10:00:00 6.1 10 Este 23 Este 0 -- -- 85
2020-03-25 09:00:00 6.1 17 Este 27 Este 0 -- -- 87
2020-03-25 08:00:00 6.1 9 Este 23 Este 0.6 -- -- 94
2020-03-25 07:00:00 6 12 Este 24 Nordeste 0.6 -- -- 93
2020-03-25 06:00:00 6.5 16 Este 24 Nordeste 0.8 -- -- 91
2020-03-25 05:00:00 7.3 9 Este 18 Este 0 -- -- 91
2020-03-25 04:00:00 7.5 12 Este 17 Este 0.4 -- -- 91
2020-03-25 03:00:00 7.9 8 Este 16 Este 0 -- -- 89
2020-03-25 02:00:00 7.8 7 Este 15 Nordeste 0 -- -- 89
2020-03-25 01:00:00 7.9 9 Nordeste 21 Este 0 -- -- 90
2020-03-25 00:00:00 8.4 12 Nordeste 22 Este 0 -- -- 93
2020-03-24 23:00:00 9.1 12 Este 21 Este 0.4 -- -- 93
2020-03-24 22:00:00 9.7 4 Este 6 Sudeste 1.2 -- -- 91
2020-03-24 21:00:00 10.1 2 Sur 16 Este 0.6 -- -- 90
2020-03-24 20:00:00 10.6 12 Este 24 Sudeste 0 -- -- 85
2020-03-24 19:00:00 11.9 17 Sudeste 26 Sudeste 0 -- -- 71
2020-03-24 18:00:00 13.8 10 Sur 24 Sur 0 -- -- 68
2020-03-24 17:00:00 15.2 13 Sur 25 Sur 0 -- -- 61
2020-03-24 16:00:00 15.8 18 Sur 33 Sur 0 -- -- 60
2020-03-24 15:00:00 16.7 9 Sudoeste 20 Sudoeste 0 -- -- 55
2020-03-24 14:00:00 15.8 8 Sudoeste 17 Sudeste 0 -- -- 59
2020-03-24 13:00:00 15.8 9 Sudeste 19 Sudeste 0 -- -- 59
2020-03-24 12:00:00 16.1 11 Sudeste 25 Este 0 -- -- 64
2020-03-24 11:00:00 14.3 14 Sudeste 24 Sudeste 0 -- -- 70
2020-03-24 10:00:00 13.3 16 Sudeste 24 Este 0 -- -- 71
2020-03-24 09:00:00 12.3 13 Nordeste 21 Este 0 -- -- 73
2020-03-24 08:00:00 10.2 9 Este 17 Este 0 -- -- 82
2020-03-24 07:00:00 9.8 11 Nordeste 22 Nordeste 0 -- -- 86
2020-03-24 06:00:00 9.8 10 Nordeste 14 Nordeste 0 -- -- 87
2020-03-24 05:00:00 9.8 6 Este 17 Este 0 -- -- 88
2020-03-24 04:00:00 9.9 9 Este 15 Nordeste 0 -- -- 89
2020-03-24 03:00:00 10.3 10 Nordeste 16 Este 0 -- -- 87
2020-03-24 02:00:00 10.4 8 Este 22 Este 0 -- -- 88
2020-03-24 01:00:00 9.5 10 Este 17 Este 0 -- -- 89
2020-03-24 00:00:00 9 9 Este 16 Este 0 -- -- 89
2020-03-23 23:00:00 9.7 11 Este 19 Este 0 -- -- 89
2020-03-23 22:00:00 10.6 9 Este 15 Este 0 -- -- 88
2020-03-23 21:00:00 12 8 Este 14 Este 0 -- -- 90
2020-03-23 20:00:00 12.3 2 Sudeste 15 Sudeste 0.8 -- -- 90
2020-03-23 19:00:00 12.8 3 Nordeste 9 Sudeste 0 -- -- 91
2020-03-23 18:00:00 12.5 3 Sudeste 29 Sudeste 3.8 -- -- 90
2020-03-23 17:00:00 14 17 Sudeste 30 Sudeste 0 -- -- 80
2020-03-23 16:00:00 15.8 20 Este 36 Este 0 -- -- 67
2020-03-23 15:00:00 17.2 23 Este 39 Este 0 -- -- 65
2020-03-23 14:00:00 16 24 Este 40 Este 0 -- -- 68
2020-03-23 13:00:00 16.5 28 Este 41 Nordeste 0 -- -- 69
2020-03-23 12:00:00 15.8 27 Este 37 Este 0 -- -- 69
2020-03-23 11:00:00 15.9 21 Este 31 Sudeste 0 -- -- 70
2020-03-23 10:00:00 13.8 17 Este 26 Este 0 -- -- 77
2020-03-23 09:00:00 11.8 6 Nordeste 12 Este 0 -- -- 85
2020-03-23 08:00:00 10.5 3 Norte 5 Norte 0 -- -- 96
2020-03-23 07:00:00 9.3 3 Norte 8 Nordeste 0 -- -- 95
2020-03-23 06:00:00 9.9 8 Nordeste 14 Nordeste 0.8 -- -- 96
2020-03-23 05:00:00 7.8 3 Este 3 Este 0 -- -- 97
2020-03-23 04:00:00 6.7 2 Noroeste 5 Norte 0 -- -- 97
2020-03-23 03:00:00 6 2 Oeste 5 Norte 0 -- -- 94
2020-03-23 02:00:00 7.1 4 Norte 8 Nordeste 0 -- -- 93
2020-03-23 01:00:00 8 7 Nordeste 14 Nordeste 0 -- -- 94
2020-03-23 00:00:00 8.3 5 Nordeste 12 Este 0 -- -- 92
2020-03-22 23:00:00 8.5 6 Este 10 Este 0 -- -- 93
2020-03-22 22:00:00 8.9 2 Norte 4 Este 0 -- -- 90
2020-03-22 21:00:00 10.4 0 Calma 10 Nordeste 0 -- -- 89
2020-03-22 20:00:00 11.7 2 Noroeste 7 Sur 0 -- -- 79
2020-03-22 19:00:00 14.1 3 Sur 15 Sur 0 -- -- 75
2020-03-22 18:00:00 16 8 Sur 22 Sur 0 -- -- 64
2020-03-22 17:00:00 16.4 14 Sur 26 Sur 0 -- -- 62
2020-03-22 16:00:00 16.6 14 Sur 22 Sur 0 -- -- 62
2020-03-22 15:00:00 19 10 Este 24 Este 0 -- -- 53
2020-03-22 14:00:00 18.4 11 Este 22 Sudeste 0 -- -- 52
2020-03-22 13:00:00 17.9 9 Sudeste 18 Sudeste 0 -- -- 56
2020-03-22 12:00:00 15.8 10 Sudeste 18 Este 0 -- -- 66
2020-03-22 11:00:00 14.9 6 Este 13 Este 0 -- -- 73
2020-03-22 10:00:00 12.5 3 Este 9 Sudeste 0 -- -- 82
2020-03-22 09:00:00 10.2 5 Sudeste 7 Sudeste 0 -- -- 95
2020-03-22 08:00:00 7.6 3 Norte 6 Norte 0 -- -- 97
2020-03-22 07:00:00 7.2 0 Calma 4 Norte 0 -- -- 96
2020-03-22 06:00:00 7.4 2 Nordeste 3 Nordeste 0 -- -- 96
2020-03-22 05:00:00 7.6 2 Oeste 4 Oeste 0 -- -- 96
2020-03-22 04:00:00 7.4 0 Calma 4 Sur 0 -- -- 95
2020-03-22 03:00:00 8.1 3 Norte 8 Norte 0 -- -- 96
2020-03-22 02:00:00 7.5 6 Norte 9 Norte 0 -- -- 97
2020-03-22 01:00:00 5.1 4 Norte 5 Norte 0 -- -- 95
2020-03-22 00:00:00 5.4 2 Oeste 5 Norte 0 -- -- 94
2020-03-21 23:00:00 6.1 2 Nordeste 8 Norte 0 -- -- 91
2020-03-21 22:00:00 7.1 5 Norte 8 Nordeste 0 -- -- 87
2020-03-21 21:00:00 9.6 3 Este 11 Sudeste 0 -- -- 80
2020-03-21 20:00:00 10.6 5 Sur 19 Sudeste 0 -- -- 76
2020-03-21 19:00:00 15 4 Oeste 10 Sur 0 -- -- 56
2020-03-21 18:00:00 17.5 6 Sudoeste 10 Sudoeste 0 -- -- 46
2020-03-21 17:00:00 17.8 7 Sur 17 Sudeste 0 -- -- 44
2020-03-21 16:00:00 17.6 7 Sudeste 23 Sur 0 -- -- 46
2020-03-21 15:00:00 17.3 7 Este 18 Sudeste 0 -- -- 43
2020-03-21 14:00:00 17 7 Sudeste 17 Este 0 -- -- 48
2020-03-21 13:00:00 16 5 Sudeste 14 Sudeste 0 -- -- 58
2020-03-21 12:00:00 15 5 Sudeste 12 Sur 0 -- -- 61
2020-03-21 11:00:00 13.3 4 Sudeste 8 Sur 0 -- -- 69
2020-03-21 10:00:00 10.4 2 Sudeste 6 Sudeste 0 -- -- 81
2020-03-21 09:00:00 7.3 4 Este 5 Este 0 -- -- 98
2020-03-21 08:00:00 2.8 0 Calma 4 Sudoeste 0 -- -- 99
2020-03-21 07:00:00 1.7 0 Calma 4 Noroeste 0 -- -- 97
2020-03-21 06:00:00 2.5 2 Oeste 6 Oeste 0 -- -- 96
2020-03-21 05:00:00 2.6 5 Noroeste 8 Noroeste 0 -- -- 96
2020-03-21 04:00:00 3.5 4 Norte 5 Sur 0 -- -- 95
2020-03-21 03:00:00 4.5 4 Sudoeste 6 Sudoeste 0 -- -- 96
2020-03-21 02:00:00 5 3 Oeste 5 Oeste 0 -- -- 95
2020-03-21 01:00:00 5.7 0 Calma 5 Este 0 -- -- 93
2020-03-21 00:00:00 6.2 0 Calma 6 Nordeste 0 -- -- 92
2020-03-20 23:00:00 7 3 Nordeste 8 Nordeste 0 -- -- 92
2020-03-20 22:00:00 7.5 6 Nordeste 9 Nordeste 0 -- -- 89
2020-03-20 21:00:00 8.2 5 Nordeste 9 Sudeste 0 -- -- 85
2020-03-20 20:00:00 11.2 5 Sudeste 14 Sudeste 0 -- -- 76
2020-03-20 19:00:00 13.7 9 Sudeste 19 Sudeste 0 -- -- 66
2020-03-20 18:00:00 16.3 10 Este 19 Sudeste 0 -- -- 57
2020-03-20 17:00:00 17.3 12 Este 22 Sudeste 0 -- -- 51
2020-03-20 16:00:00 17.8 13 Este 24 Sudeste 0 -- -- 51
2020-03-20 15:00:00 16.5 4 Sur 15 Sudeste 0 -- -- 53
2020-03-20 14:00:00 16.4 10 Este 22 Sudeste 0 -- -- 54
2020-03-20 13:00:00 16.3 13 Sudeste 20 Sudeste 0 -- -- 57
2020-03-20 12:00:00 15.3 7 Este 16 Nordeste 0 -- -- 63
2020-03-20 11:00:00 14 7 Este 13 Este 0 -- -- 69
2020-03-20 10:00:00 11.9 10 Nordeste 15 Nordeste 0 -- -- 82
2020-03-20 09:00:00 7.6 3 Norte 7 Nordeste 0 -- -- 100
2020-03-20 08:00:00 3.9 0 Calma 10 Norte 0 -- -- 99
2020-03-20 07:00:00 2.1 8 Norte 10 Norte 0 -- -- 98
2020-03-20 06:00:00 1.9 5 Norte 6 Norte 0 -- -- 97
2020-03-20 05:00:00 2.7 4 Norte 6 Norte 0 -- -- 97
2020-03-20 04:00:00 3.7 4 Noroeste 6 Noroeste 0 -- -- 97
2020-03-20 03:00:00 4.2 2 Norte 6 Norte 0 -- -- 96
2020-03-20 02:00:00 5.1 0 Calma 5 Nordeste 0 -- -- 94
2020-03-20 01:00:00 6.1 4 Norte 4 Nordeste 0 -- -- 91
2020-03-20 00:00:00 7.9 0 Calma 6 Sur 0 -- -- 89
2020-03-19 23:00:00 8.8 3 Sudeste 5 Sudeste 0 -- -- 88
2020-03-19 22:00:00 10 4 Sudeste 18 Este 0 -- -- 88
2020-03-19 21:00:00 10.3 2 Sur 9 Este 0 -- -- 87
2020-03-19 20:00:00 11.6 8 Este 12 Este 0 -- -- 84
2020-03-19 19:00:00 14.1 3 Este 9 Sudeste 0 -- -- 77
2020-03-19 18:00:00 15.9 6 Sudeste 16 Sudoeste 0 -- -- 69
2020-03-19 17:00:00 17.4 9 Sur 19 Sur 0 -- -- 61
2020-03-19 16:00:00 18.6 8 Sur 16 Sudoeste 0 -- -- 62
2020-03-19 15:00:00 18.4 8 Sur 14 Sudoeste 0 -- -- 65
2020-03-19 14:00:00 17.7 6 Sudeste 13 Sur 0 -- -- 71
2020-03-19 13:00:00 16.9 3 Sudoeste 11 Sur 0 -- -- 74
2020-03-19 12:00:00 15.4 4 Sudeste 12 Noroeste 0 -- -- 79
2020-03-19 11:00:00 13.5 4 Sudoeste 11 Sudoeste 0 -- -- 85
2020-03-19 10:00:00 10.9 3 Sudoeste 7 Oeste 0 -- -- 100
2020-03-19 09:00:00 7.9 2 Sudoeste 5 Sudoeste 0 -- -- 100
2020-03-19 08:00:00 5.2 0 Calma 3 Nordeste 0 -- -- 100
2020-03-19 07:00:00 5.1 3 Noroeste 4 Este 0 -- -- 98
2020-03-19 06:00:00 5.5 3 Este 4 Este 0 -- -- 99
2020-03-19 05:00:00 5.6 0 Calma 4 Nordeste 0 -- -- 99
2020-03-19 04:00:00 5.9 2 Norte 3 Norte 0 -- -- 99
2020-03-19 03:00:00 6 0 Calma 5 Norte 0 -- -- 98
2020-03-19 02:00:00 6.5 3 Norte 4 Norte 0 -- -- 98
2020-03-19 01:00:00 7.4 0 Calma 5 Sudeste 0 -- -- 97
2020-03-19 00:00:00 7.9 0 Calma 4 Noroeste 0 -- -- 96
2020-03-18 23:00:00 8.8 3 Norte 4 Norte 0 -- -- 96
2020-03-18 22:00:00 9.3 3 Norte 4 Norte 0 -- -- 95
2020-03-18 21:00:00 10.2 0 Calma 5 Norte 0 -- -- 93
2020-03-18 20:00:00 12.1 0 Calma 3 Norte 0 -- -- 90
2020-03-18 19:00:00 13.9 3 Norte 4 Norte 0 -- -- 84
2020-03-18 18:00:00 15.3 0 Calma 4 Noroeste 0 -- -- 78
2020-03-18 17:00:00 15.9 0 Calma 4 Sur 0 -- -- 75
2020-03-18 16:00:00 15.7 2 Norte 8 Sudoeste 0 -- -- 74
2020-03-18 15:00:00 15.6 3 Sudoeste 8 Sudoeste 0 -- -- 77
2020-03-18 14:00:00 15.4 4 Sudoeste 9 Sudoeste 0 -- -- 74
2020-03-18 13:00:00 14.5 4 Sudoeste 10 Sur 0 -- -- 77
2020-03-18 12:00:00 13.9 4 Sur 8 Sur 0 -- -- 81
2020-03-18 11:00:00 12 4 Sudeste 7 Sudeste 0 -- -- 93
2020-03-18 10:00:00 10 4 Sudeste 6 Sudeste 0 -- -- 99
2020-03-18 09:00:00 8 0 Calma 2 Norte 0 -- -- 99
2020-03-18 08:00:00 6.7 0 Calma 4 Este 0 -- -- 98
2020-03-18 07:00:00 6.7 0 Calma 4 Noroeste 0 -- -- 98
2020-03-18 06:00:00 7 2 Noroeste 3 Noroeste 0 -- -- 97
2020-03-18 05:00:00 7.2 0 Calma 5 Norte 0 -- -- 97
2020-03-18 04:00:00 7.8 3 Norte 5 Norte 0 -- -- 96
2020-03-18 03:00:00 9.3 2 Oeste 4 Sudoeste 0 -- -- 96
2020-03-18 02:00:00 9.8 0 Calma 4 Noroeste 0 -- -- 96
2020-03-18 01:00:00 10.1 2 Nordeste 3 Nordeste 0 -- -- 95
2020-03-18 00:00:00 10.2 3 Norte 5 Norte 0 -- -- 95
2020-03-17 23:00:00 10.5 2 Sudoeste 4 Norte 0 -- -- 94
2020-03-17 22:00:00 10.9 2 Nordeste 9 Norte 0 -- -- 92
2020-03-17 21:00:00 10.8 9 Norte 12 Nordeste 0 -- -- 92
2020-03-17 20:00:00 12.4 8 Nordeste 9 Este 0 -- -- 85
2020-03-17 19:00:00 14.9 7 Este 12 Este 0 -- -- 80
2020-03-17 18:00:00 16.2 5 Este 14 Este 0 -- -- 75
2020-03-17 17:00:00 16.9 11 Este 20 Este 0 -- -- 69
2020-03-17 16:00:00 17.2 11 Este 19 Este 0 -- -- 69
2020-03-17 15:00:00 15.6 5 Este 13 Este 0 -- -- 77
2020-03-17 14:00:00 15.1 7 Este 15 Este 0 -- -- 76
2020-03-17 13:00:00 15.2 8 Nordeste 16 Este 0 -- -- 79
2020-03-17 12:00:00 14.2 9 Este 21 Este 0.4 -- -- 80
2020-03-17 11:00:00 13.2 8 Este 14 Este 0.4 -- -- 83
2020-03-17 10:00:00 12.3 4 Oeste 15 Nordeste 0.4 -- -- 88
2020-03-17 09:00:00 11.9 9 Nordeste 14 Este 0.2 -- -- 84
2020-03-17 08:00:00 11.5 7 Nordeste 18 Este 0 -- -- 84
2020-03-17 07:00:00 12.3 4 Nordeste 19 Este 0 -- -- 74
2020-03-17 06:00:00 13.1 18 Este 26 Este 0 -- -- 69
2020-03-17 05:00:00 13 15 Este 32 Este 0 -- -- 71
2020-03-17 04:00:00 12.9 15 Nordeste 32 Este 0 -- -- 71
2020-03-17 03:00:00 13 19 Este 33 Nordeste 0 -- -- 74
2020-03-17 02:00:00 13 20 Este 35 Nordeste 0 -- -- 76
2020-03-17 01:00:00 12.8 17 Este 28 Este 0 -- -- 78
2020-03-17 00:00:00 13 18 Este 40 Este 0 -- -- 76
2020-03-16 23:00:00 13.4 26 Este 44 Nordeste 0 -- -- 73
2020-03-16 22:00:00 13.7 23 Nordeste 39 Nordeste 0 -- -- 73
2020-03-16 21:00:00 12.6 21 Nordeste 34 Nordeste 0 -- -- 80
2020-03-16 20:00:00 13 21 Este 37 Este 0 -- -- 77
2020-03-16 19:00:00 13.3 25 Nordeste 42 Nordeste 0 -- -- 76
2020-03-16 18:00:00 14 25 Este 57 Nordeste 0 -- -- 77
2020-03-16 17:00:00 13.7 30 Este 46 Este 0.2 -- -- 78
2020-03-16 16:00:00 11.8 32 Este 53 Este 1 -- -- 89
2020-03-16 15:00:00 13.8 22 Este 41 Este 0 -- -- 75
2020-03-16 14:00:00 13.1 26 Nordeste 44 Nordeste 0 -- -- 77
2020-03-16 13:00:00 11.8 30 Nordeste 47 Nordeste 0.4 -- -- 86
2020-03-16 12:00:00 10.3 24 Nordeste 44 Nordeste 0.8 -- -- 91
2020-03-16 11:00:00 10.9 19 Este 35 Este 0.4 -- -- 90
2020-03-16 10:00:00 10.9 20 Este 46 Este 0.6 -- -- 91
2020-03-16 09:00:00 10.9 25 Este 41 Nordeste 0.4 -- -- 91
2020-03-16 08:00:00 11.1 20 Nordeste 35 Este 0.6 -- -- 94
2020-03-16 07:00:00 11.2 17 Este 31 Este 1.6 -- -- 93
2020-03-16 06:00:00 11.3 19 Este 31 Este 1 -- -- 93
2020-03-16 05:00:00 11.1 12 Este 24 Este 1.4 -- -- 94
2020-03-16 04:00:00 10.9 15 Este 30 Este 1 -- -- 94
2020-03-16 03:00:00 11.1 16 Este 26 Nordeste 0.2 -- -- 93
2020-03-16 02:00:00 11 15 Este 36 Este 1.4 -- -- 94
2020-03-16 01:00:00 11.2 18 Este 32 Este 0.6 -- -- 95
2020-03-16 00:00:00 11.6 12 Este 28 Este 1.2 -- -- 92
2020-03-15 23:00:00 12 18 Este 37 Este 0 -- -- 86
2020-03-15 22:00:00 12 20 Este 33 Este 0 -- -- 83
2020-03-15 21:00:00 12 18 Este 34 Este 1.2 -- -- 85
2020-03-15 20:00:00 13.2 16 Este 30 Este 0 -- -- 81
2020-03-15 19:00:00 14.5 20 Este 30 Sudeste 0 -- -- 71
2020-03-15 18:00:00 15.3 18 Sudeste 31 Sudeste 0 -- -- 70
2020-03-15 17:00:00 16.9 19 Sudeste 29 Este 0 -- -- 65
2020-03-15 16:00:00 19.2 21 Este 33 Este 0 -- -- 57
2020-03-15 15:00:00 18.6 21 Sudeste 33 Este 0 -- -- 59
2020-03-15 14:00:00 18.9 19 Este 27 Sudeste 0 -- -- 57
2020-03-15 13:00:00 17.8 15 Este 24 Este 0 -- -- 59
2020-03-15 12:00:00 16.4 13 Este 19 Este 0 -- -- 63
2020-03-15 11:00:00 14.6 10 Este 15 Nordeste 0 -- -- 72
2020-03-15 10:00:00 11.7 5 Este 12 Este 0 -- -- 88
2020-03-15 09:00:00 6.9 2 Norte 4 Norte 0 -- -- 99
2020-03-15 08:00:00 2.1 0 Calma 4 Norte 0 -- -- 98
2020-03-15 07:00:00 2.1 0 Calma 3 Sur 0 -- -- 96
2020-03-15 06:00:00 2.2 0 Calma 5 Norte 0 -- -- 96
2020-03-15 05:00:00 2.6 0 Calma 5 Noroeste 0 -- -- 96
2020-03-15 04:00:00 3.3 3 Oeste 5 Oeste 0 -- -- 95
2020-03-15 03:00:00 4.1 2 Noroeste 6 Nordeste 0 -- -- 94
2020-03-15 02:00:00 5.8 5 Nordeste 8 Nordeste 0 -- -- 96
2020-03-15 01:00:00 6.1 4 Nordeste 6 Norte 0 -- -- 93
2020-03-15 00:00:00 7.1 2 Noroeste 5 Noroeste 0 -- -- 92
2020-03-14 23:00:00 7.7 0 Calma 10 Nordeste 0 -- -- 89
2020-03-14 22:00:00 8.6 8 Nordeste 11 Nordeste 0 -- -- 87
2020-03-14 21:00:00 9 7 Nordeste 10 Nordeste 0 -- -- 85
2020-03-14 20:00:00 10.2 5 Este 9 Este 0 -- -- 81
2020-03-14 19:00:00 14.3 8 Este 12 Este 0 -- -- 71
2020-03-14 18:00:00 16.5 8 Este 12 Sudeste 0 -- -- 64
2020-03-14 17:00:00 17.4 5 Este 24 Sur 0 -- -- 61
2020-03-14 16:00:00 17.7 6 Sudeste 13 Sur 0 -- -- 59
2020-03-14 15:00:00 16.9 7 Sudoeste 13 Sur 0 -- -- 60
2020-03-14 14:00:00 15.8 5 Sudoeste 17 Sudoeste 0 -- -- 63
2020-03-14 13:00:00 14.9 6 Sudoeste 13 Sur 0 -- -- 61
2020-03-14 12:00:00 12.8 6 Sudoeste 13 Sudoeste 0 -- -- 68
2020-03-14 11:00:00 11.5 5 Sudoeste 14 Sudoeste 0 -- -- 73
2020-03-14 10:00:00 9.5 6 Sur 12 Sur 0 -- -- 83
2020-03-14 09:00:00 7.6 4 Sur 6 Sur 0 -- -- 94
2020-03-14 08:00:00 5.1 2 Noroeste 6 Sudoeste 0 -- -- 98
2020-03-14 07:00:00 5.5 3 Sur 8 Nordeste 0 -- -- 97
2020-03-14 06:00:00 5.9 3 Este 5 Oeste 0 -- -- 97
2020-03-14 05:00:00 5.3 4 Sudoeste 8 Sudoeste 0 -- -- 96
2020-03-14 04:00:00 6 4 Sudeste 9 Sudoeste 0 -- -- 96
2020-03-14 03:00:00 7.5 4 Sudoeste 8 Sur 0 -- -- 96
2020-03-14 02:00:00 6.8 0 Calma 6 Sudeste 0 -- -- 95
2020-03-14 01:00:00 7.1 3 Noroeste 6 Oeste 0 -- -- 95
2020-03-14 00:00:00 7.4 5 Norte 8 Norte 0 -- -- 92
2020-03-13 23:00:00 9.6 3 Sudoeste 8 Sudoeste 0 -- -- 93
2020-03-13 22:00:00 10 5 Noroeste 11 Norte 0 -- -- 91
2020-03-13 21:00:00 11.1 6 Noroeste 10 Noroeste 0 -- -- 88
2020-03-13 20:00:00 12.2 3 Norte 7 Noroeste 0 -- -- 84
2020-03-13 19:00:00 15.1 3 Norte 6 Noroeste 0 -- -- 74
2020-03-13 18:00:00 17.1 3 Noroeste 8 Noroeste 0 -- -- 67
2020-03-13 17:00:00 17.9 2 Oeste 8 Noroeste 0 -- -- 65
2020-03-13 16:00:00 17.1 4 Nordeste 10 Norte 0 -- -- 68
2020-03-13 15:00:00 16.1 4 Noroeste 10 Noroeste 0 -- -- 73
2020-03-13 14:00:00 15.3 4 Noroeste 8 Nordeste 0 -- -- 75
2020-03-13 13:00:00 14.4 3 Sudeste 10 Sur 0 -- -- 78
2020-03-13 12:00:00 14.5 4 Sur 12 Sudoeste 0 -- -- 76
2020-03-13 11:00:00 14.2 6 Este 14 Este 0 -- -- 79
2020-03-13 10:00:00 12.5 6 Este 9 Este 0 -- -- 89
2020-03-13 09:00:00 10.9 5 Este 8 Este 0 -- -- 95
2020-03-13 08:00:00 9.4 4 Este 10 Este 0 -- -- 97
2020-03-13 07:00:00 9 9 Este 14 Este 0 -- -- 96
2020-03-13 06:00:00 8.6 4 Nordeste 13 Este 0 -- -- 95
2020-03-13 05:00:00 9.6 8 Este 10 Este 0 -- -- 94
2020-03-13 04:00:00 10 7 Sudeste 13 Sudeste 0 -- -- 93
2020-03-13 03:00:00 11.4 0 Calma 17 Norte 0 -- -- 91
2020-03-13 02:00:00 11.7 5 Nordeste 20 Este 0 -- -- 87
2020-03-13 01:00:00 13.9 11 Nordeste 19 Sudeste 0 -- -- 84
2020-03-13 00:00:00 16.3 17 Sur 40 Sur 0.2 -- -- 72
2020-03-12 23:00:00 15.1 16 Este 28 Sudeste 0.2 -- -- 82
2020-03-12 22:00:00 16.1 6 Sudoeste 15 Sudeste 0 -- -- 73
2020-03-12 21:00:00 15.5 5 Norte 10 Sudoeste 0 -- -- 82
2020-03-12 20:00:00 16.6 5 Sudoeste 12 Sur 0 -- -- 77
2020-03-12 19:00:00 19.8 0 Calma 4 Noroeste 0 -- -- 66
2020-03-12 18:00:00 23.2 0 Calma 7 Nordeste 0 -- -- 47
2020-03-12 17:00:00 24.2 6 Nordeste 8 Nordeste 0 -- -- 42
2020-03-12 16:00:00 24.5 5 Este 8 Este 0 -- -- 53
2020-03-12 15:00:00 23.8 3 Este 10 Sudeste 0 -- -- 50
2020-03-12 14:00:00 23.3 3 Sur 7 Este 0 -- -- 52
2020-03-12 13:00:00 21.1 2 Norte 6 Norte 0 -- -- 57
2020-03-12 12:00:00 18.8 3 Sur 7 Sudoeste 0 -- -- 61
2020-03-12 11:00:00 16.1 4 Sudoeste 6 Oeste 0 -- -- 71
2020-03-12 10:00:00 13.4 0 Calma 6 Oeste 0 -- -- 80
2020-03-12 09:00:00 8.8 5 Oeste 8 Oeste 0 -- -- 99
2020-03-12 08:00:00 5.4 0 Calma 5 Este 0 -- -- 98
2020-03-12 07:00:00 4.9 0 Calma 4 Oeste 0 -- -- 96
2020-03-12 06:00:00 5.2 0 Calma 2 Noroeste 0 -- -- 96
2020-03-12 05:00:00 5.4 2 Norte 7 Norte 0 -- -- 95
2020-03-12 04:00:00 5.8 3 Norte 5 Norte 0 -- -- 94
2020-03-12 03:00:00 6.7 3 Sudeste 5 Sudeste 0 -- -- 92
2020-03-12 02:00:00 7.6 0 Calma 5 Noroeste 0 -- -- 92
2020-03-12 01:00:00 8.7 0 Calma 8 Norte 0 -- -- 90
2020-03-12 00:00:00 9.2 3 Noroeste 8 Norte 0 -- -- 91
2020-03-11 23:00:00 9.7 5 Noroeste 8 Noroeste 0 -- -- 90
2020-03-11 22:00:00 10.8 2 Oeste 5 Sur 0 -- -- 85
2020-03-11 21:00:00 12 0 Calma 10 Norte 0 -- -- 82
2020-03-11 20:00:00 13.6 9 Norte 10 Norte 0 -- -- 78
2020-03-11 19:00:00 16.9 6 Nordeste 8 Nordeste 0 -- -- 68
2020-03-11 18:00:00 21.4 4 Nordeste 6 Norte 0 -- -- 56
2020-03-11 17:00:00 22.1 4 Norte 8 Norte 0 -- -- 51
2020-03-11 16:00:00 21.1 4 Norte 9 Este 0 -- -- 56
2020-03-11 15:00:00 20.1 3 Nordeste 9 Nordeste 0 -- -- 53
2020-03-11 14:00:00 19.2 4 Norte 8 Norte 0 -- -- 54
2020-03-11 13:00:00 17.3 5 Este 9 Sudeste 0 -- -- 56
2020-03-11 12:00:00 15.6 4 Sur 9 Sur 0 -- -- 61
2020-03-11 11:00:00 13.8 3 Este 6 Este 0 -- -- 67
2020-03-11 10:00:00 11.3 4 Este 6 Sudeste 0 -- -- 78
2020-03-11 09:00:00 7.6 2 Sudeste 5 Este 0 -- -- 97
2020-03-11 08:00:00 2.4 2 Nordeste 5 Sudoeste 0 -- -- 98
2020-03-11 07:00:00 2 4 Noroeste 5 Oeste 0 -- -- 97
2020-03-11 06:00:00 1.9 3 Norte 5 Norte 0 -- -- 97
2020-03-11 05:00:00 2.1 2 Norte 5 Nordeste 0 -- -- 95
2020-03-11 04:00:00 2.7 0 Calma 3 Norte 0 -- -- 95
2020-03-11 03:00:00 3.6 0 Calma 4 Sudeste 0 -- -- 95
2020-03-11 02:00:00 3.9 3 Este 8 Norte 0 -- -- 93
2020-03-11 01:00:00 4.7 5 Noroeste 8 Noroeste 0 -- -- 93
2020-03-11 00:00:00 5.3 5 Norte 7 Norte 0 -- -- 90
2020-03-10 23:00:00 7 3 Noroeste 5 Norte 0 -- -- 90
2020-03-10 22:00:00 7.7 4 Nordeste 8 Norte 0 -- -- 87
2020-03-10 21:00:00 9.1 3 Norte 8 Norte 0 -- -- 84
2020-03-10 20:00:00 10.4 6 Norte 9 Norte 0 -- -- 77
2020-03-10 19:00:00 13.9 3 Nordeste 9 Norte 0 -- -- 67
2020-03-10 18:00:00 16.7 7 Nordeste 9 Nordeste 0 -- -- 62
2020-03-10 17:00:00 18.1 2 Sudeste 11 Sur 0 -- -- 50
2020-03-10 16:00:00 17.1 6 Sur 12 Sudoeste 0 -- -- 51
2020-03-10 15:00:00 16.8 3 Sur 10 Oeste 0 -- -- 51
2020-03-10 14:00:00 14.5 3 Noroeste 8 Noroeste 0 -- -- 59
2020-03-10 13:00:00 13.4 5 Oeste 10 Oeste 0 -- -- 62
2020-03-10 12:00:00 12.2 5 Sudoeste 12 Oeste 0 -- -- 66
2020-03-10 11:00:00 11.3 6 Sudeste 12 Sudeste 0 -- -- 72
2020-03-10 10:00:00 9 4 Sudeste 8 Este 0 -- -- 78
2020-03-10 09:00:00 6 6 Este 10 Este 0 -- -- 90
2020-03-10 08:00:00 3.7 3 Nordeste 9 Nordeste 0 -- -- 92
2020-03-10 07:00:00 3.1 9 Nordeste 13 Nordeste 0 -- -- 94
2020-03-10 06:00:00 1.7 8 Nordeste 12 Nordeste 0 -- -- 95
2020-03-10 05:00:00 2 5 Nordeste 9 Nordeste 0 -- -- 95
2020-03-10 04:00:00 2.8 3 Noroeste 9 Sur 0 -- -- 88
2020-03-10 03:00:00 5.3 5 Sur 12 Sudoeste 0 -- -- 83
2020-03-10 02:00:00 6.7 9 Sudoeste 17 Oeste 0 -- -- 74
2020-03-10 01:00:00 6.9 9 Oeste 17 Oeste 0 -- -- 74
2020-03-10 00:00:00 7.1 6 Oeste 12 Oeste 0 -- -- 72
2020-03-09 23:00:00 8.2 6 Oeste 28 Oeste 0 -- -- 65
2020-03-09 22:00:00 9.4 17 Oeste 37 Noroeste 0 -- -- 61
2020-03-09 21:00:00 9.8 14 Oeste 44 Oeste 0 -- -- 61
2020-03-09 20:00:00 10.5 17 Oeste 39 Oeste 0 -- -- 55
2020-03-09 19:00:00 11.9 24 Oeste 53 Oeste 0 -- -- 49
2020-03-09 18:00:00 14.4 27 Oeste 54 Oeste 0 -- -- 44
2020-03-09 17:00:00 15.7 29 Oeste 60 Oeste 0 -- -- 43
2020-03-09 16:00:00 16.4 35 Oeste 61 Oeste 0 -- -- 39
2020-03-09 15:00:00 16.7 27 Oeste 56 Oeste 0 -- -- 41
2020-03-09 14:00:00 16.3 31 Oeste 62 Noroeste 0 -- -- 47
2020-03-09 13:00:00 15.5 30 Oeste 58 Oeste 0 -- -- 51
2020-03-09 12:00:00 13.8 30 Oeste 58 Oeste 0 -- -- 57
2020-03-09 11:00:00 12.4 27 Oeste 53 Oeste 0 -- -- 60
2020-03-09 10:00:00 11.5 20 Oeste 50 Oeste 0 -- -- 61
2020-03-09 09:00:00 10.6 17 Oeste 36 Oeste 0 -- -- 63
2020-03-09 08:00:00 8.9 9 Oeste 26 Oeste 0 -- -- 69
2020-03-09 07:00:00 8.8 13 Oeste 37 Oeste 0 -- -- 70
2020-03-09 06:00:00 9.9 22 Oeste 44 Oeste 0 -- -- 67
2020-03-09 05:00:00 10.8 19 Oeste 40 Oeste 0 -- -- 62
2020-03-09 04:00:00 9.9 13 Oeste 24 Oeste 0 -- -- 72
2020-03-09 03:00:00 9.5 10 Oeste 39 Oeste 0 -- -- 78
2020-03-09 02:00:00 8.4 5 Noroeste 17 Oeste 0 -- -- 83
2020-03-09 01:00:00 8.3 5 Oeste 14 Sudoeste 0 -- -- 82
2020-03-09 00:00:00 9 7 Sudoeste 12 Sudoeste 0 -- -- 79
2020-03-08 23:00:00 9.6 4 Sur 9 Sudoeste 0 -- -- 78
2020-03-08 22:00:00 10 4 Sur 8 Sudoeste 0 -- -- 75
2020-03-08 21:00:00 10.9 3 Noroeste 8 Oeste 0 -- -- 71
2020-03-08 20:00:00 12.7 2 Este 7 Sudoeste 0 -- -- 61
2020-03-08 19:00:00 16 6 Sudoeste 17 Oeste 0 -- -- 49
2020-03-08 18:00:00 17.1 6 Oeste 14 Oeste 0 -- -- 51
2020-03-08 17:00:00 17.8 9 Oeste 21 Sudoeste 0 -- -- 50
2020-03-08 16:00:00 18.1 9 Oeste 22 Oeste 0 -- -- 49
2020-03-08 15:00:00 18.3 8 Oeste 23 Oeste 0 -- -- 47
2020-03-08 14:00:00 16.5 11 Sudoeste 23 Sudoeste 0 -- -- 55
2020-03-08 13:00:00 14.6 10 Oeste 21 Oeste 0 -- -- 62
2020-03-08 12:00:00 12.8 5 Oeste 12 Oeste 0 -- -- 67
2020-03-08 11:00:00 11.2 3 Este 7 Este 0 -- -- 71
2020-03-08 10:00:00 8.7 4 Este 7 Este 0 -- -- 81
2020-03-08 09:00:00 5.1 0 Calma 5 Norte 0 -- -- 96
2020-03-08 08:00:00 1 3 Oeste 7 Nordeste 0 -- -- 98
2020-03-08 07:00:00 0.2 7 Norte 8 Norte 0 -- -- 95
2020-03-08 06:00:00 0.9 2 Noroeste 8 Noroeste 0 -- -- 94
2020-03-08 05:00:00 1.8 3 Nordeste 9 Nordeste 0 -- -- 93
2020-03-08 04:00:00 3.4 5 Nordeste 10 Norte 0 -- -- 91
2020-03-08 03:00:00 6.3 3 Sudoeste 8 Sudoeste 0 -- -- 83
2020-03-08 02:00:00 7.5 3 Sur 11 Noroeste 0 -- -- 83
2020-03-08 01:00:00 9.3 8 Noroeste 21 Oeste 0 -- -- 78
2020-03-08 00:00:00 9.7 9 Sudoeste 14 Sudoeste 0 -- -- 75
2020-03-07 23:00:00 10.2 5 Oeste 20 Noroeste 0 -- -- 69
2020-03-07 22:00:00 10.9 10 Oeste 23 Oeste 0 -- -- 67
2020-03-07 21:00:00 11.9 13 Noroeste 31 Oeste 0 -- -- 62
2020-03-07 20:00:00 12.7 16 Oeste 33 Noroeste 0 -- -- 60
2020-03-07 19:00:00 13.7 9 Oeste 28 Oeste 0 -- -- 57
2020-03-07 18:00:00 15.4 16 Oeste 33 Oeste 0 -- -- 51
2020-03-07 17:00:00 16.5 15 Oeste 39 Oeste 0 -- -- 48
2020-03-07 16:00:00 18.1 20 Oeste 38 Oeste 0 -- -- 42
2020-03-07 15:00:00 17.7 16 Oeste 35 Oeste 0 -- -- 41
2020-03-07 14:00:00 17 18 Oeste 35 Oeste 0 -- -- 45
2020-03-07 13:00:00 15.8 14 Oeste 30 Oeste 0 -- -- 41
2020-03-07 12:00:00 14.2 14 Oeste 33 Oeste 0 -- -- 53
2020-03-07 11:00:00 12 14 Oeste 28 Oeste 0 -- -- 61
2020-03-07 10:00:00 8.7 5 Oeste 14 Oeste 0 -- -- 73
2020-03-07 09:00:00 6.5 4 Noroeste 21 Nordeste 0 -- -- 83
2020-03-07 08:00:00 2.4 8 Este 13 Este 0 -- -- 94
2020-03-07 07:00:00 1.5 2 Sudoeste 8 Oeste 0 -- -- 91
2020-03-07 06:00:00 2.4 4 Oeste 14 Noroeste 0 -- -- 92
2020-03-07 05:00:00 1.3 5 Oeste 11 Oeste 0 -- -- 92
2020-03-07 04:00:00 0.9 4 Noroeste 13 Noroeste 0 -- -- 90
2020-03-07 03:00:00 2.4 5 Noroeste 14 Noroeste 0 -- -- 87
2020-03-07 02:00:00 3.5 7 Noroeste 30 Noroeste 0 -- -- 86
2020-03-07 01:00:00 4.4 13 Noroeste 28 Oeste 0 -- -- 83
2020-03-07 00:00:00 5 17 Oeste 35 Oeste 0 -- -- 79
2020-03-06 23:00:00 4.8 13 Oeste 33 Oeste 0 -- -- 76
2020-03-06 22:00:00 5.1 17 Oeste 44 Oeste 0 -- -- 77
2020-03-06 21:00:00 5.5 19 Oeste 39 Oeste 0 -- -- 76
2020-03-06 20:00:00 6.1 21 Oeste 50 Oeste 0 -- -- 73
2020-03-06 19:00:00 7.3 25 Oeste 54 Oeste 0 -- -- 67
2020-03-06 18:00:00 8.6 26 Oeste 62 Oeste 0 -- -- 63
2020-03-06 17:00:00 9.9 35 Oeste 71 Oeste 0 -- -- 57
2020-03-06 16:00:00 11.7 36 Oeste 63 Oeste 0 -- -- 50
2020-03-06 15:00:00 12.5 33 Oeste 60 Oeste 0 -- -- 43
2020-03-06 14:00:00 12.3 33 Oeste 71 Oeste 0 -- -- 47
2020-03-06 13:00:00 12.3 37 Oeste 63 Oeste 0 -- -- 50
2020-03-06 12:00:00 12.4 29 Oeste 54 Oeste 0 -- -- 52
2020-03-06 11:00:00 11.2 28 Oeste 50 Oeste 0 -- -- 57
2020-03-06 10:00:00 10.3 21 Oeste 40 Oeste 0 -- -- 64
2020-03-06 09:00:00 5.9 6 Oeste 10 Oeste 0 -- -- 88
2020-03-06 08:00:00 4.1 4 Norte 17 Sudoeste 0 -- -- 86
2020-03-06 07:00:00 4.6 8 Sudoeste 20 Oeste 0 -- -- 85
2020-03-06 06:00:00 5.5 8 Oeste 27 Oeste 0 -- -- 80
2020-03-06 05:00:00 5.2 6 Oeste 24 Oeste 0 -- -- 80
2020-03-06 04:00:00 5.1 9 Oeste 18 Oeste 0 -- -- 83
2020-03-06 03:00:00 5.8 9 Oeste 17 Oeste 0 -- -- 80
2020-03-06 02:00:00 6.2 7 Oeste 19 Noroeste 0 -- -- 76
2020-03-06 01:00:00 7.2 12 Oeste 27 Oeste 0 -- -- 70
2020-03-06 00:00:00 7.6 14 Noroeste 36 Oeste 0 -- -- 70
2020-03-05 23:00:00 8.4 15 Oeste 40 Oeste 0 -- -- 69
2020-03-05 22:00:00 9.6 19 Oeste 39 Oeste 0 -- -- 66
2020-03-05 21:00:00 10.7 21 Oeste 44 Oeste 0 -- -- 64
2020-03-05 20:00:00 11.5 18 Oeste 37 Noroeste 0 -- -- 64
2020-03-05 19:00:00 12.7 19 Oeste 50 Noroeste 0 -- -- 62
2020-03-05 18:00:00 14.8 25 Oeste 61 Oeste 0 -- -- 55
2020-03-05 17:00:00 16.4 26 Oeste 62 Noroeste 0 -- -- 49
2020-03-05 16:00:00 15.5 27 Noroeste 50 Oeste 0 -- -- 57
2020-03-05 15:00:00 16.4 16 Oeste 35 Sudoeste 0 -- -- 68
2020-03-05 14:00:00 16.2 2 Nordeste 6 Norte 0 -- -- 70
2020-03-05 13:00:00 15.9 4 Oeste 9 Oeste 0 -- -- 69
2020-03-05 12:00:00 14.9 4 Noroeste 9 Noroeste 0 -- -- 79
2020-03-05 11:00:00 12.8 2 Norte 5 Norte 0 -- -- 86
2020-03-05 10:00:00 10.9 3 Noroeste 7 Sudoeste 0 -- -- 94
2020-03-05 09:00:00 8.8 5 Sudoeste 10 Sur 0 -- -- 98
2020-03-05 08:00:00 5.8 4 Norte 6 Norte 0 -- -- 97
2020-03-05 07:00:00 6.3 0 Calma 5 Noroeste 0 -- -- 97
2020-03-05 06:00:00 6.8 4 Norte 5 Nordeste 0 -- -- 96
2020-03-05 05:00:00 6.5 4 Norte 6 Norte 0 -- -- 96
2020-03-05 04:00:00 6.8 3 Noroeste 8 Sudoeste 0 -- -- 94
2020-03-05 03:00:00 7.3 0 Calma 9 Norte 0 -- -- 95
2020-03-05 02:00:00 7.9 3 Norte 6 Este 0 -- -- 94
2020-03-05 01:00:00 7.8 5 Norte 8 Norte 0 -- -- 93
2020-03-05 00:00:00 8.4 2 Nordeste 8 Oeste 0 -- -- 90
2020-03-04 23:00:00 11.1 0 Calma 11 Sur 0 -- -- 81
2020-03-04 22:00:00 13 5 Sudeste 11 Sudoeste 0 -- -- 79
2020-03-04 21:00:00 13.5 5 Noroeste 14 Sudoeste 0 -- -- 76
2020-03-04 20:00:00 15.2 4 Noroeste 20 Oeste 0 -- -- 71
2020-03-04 19:00:00 17.2 13 Oeste 27 Sudoeste 0 -- -- 66
2020-03-04 18:00:00 19.6 15 Oeste 30 Oeste 0 -- -- 59
2020-03-04 17:00:00 20.4 15 Oeste 38 Oeste 0 -- -- 58
2020-03-04 16:00:00 20.7 17 Oeste 44 Oeste 0 -- -- 57
2020-03-04 15:00:00 20 21 Oeste 42 Oeste 0 -- -- 58
2020-03-04 14:00:00 19.3 21 Oeste 48 Oeste 0 -- -- 60
2020-03-04 13:00:00 18.7 27 Oeste 47 Noroeste 0 -- -- 63
2020-03-04 12:00:00 16.6 26 Oeste 42 Oeste 0 -- -- 68
2020-03-04 11:00:00 13.8 16 Oeste 27 Sudoeste 0 -- -- 75
2020-03-04 10:00:00 11.5 3 Este 7 Norte 0 -- -- 75
2020-03-04 09:00:00 8.8 3 Sudeste 7 Norte 0 -- -- 88
2020-03-04 08:00:00 6.7 5 Norte 11 Nordeste 0 -- -- 90
2020-03-04 07:00:00 6.5 3 Noroeste 12 Norte 0 -- -- 85
2020-03-04 06:00:00 7.5 2 Noroeste 21 Noroeste 0 -- -- 81
2020-03-04 05:00:00 7.6 6 Sudoeste 18 Oeste 0 -- -- 81
2020-03-04 04:00:00 8.4 6 Noroeste 24 Oeste 0 -- -- 77
2020-03-04 03:00:00 9.5 15 Oeste 29 Oeste 0 -- -- 71
2020-03-04 02:00:00 9.9 14 Oeste 32 Oeste 0 -- -- 69
2020-03-04 01:00:00 9.7 15 Oeste 30 Oeste 0 -- -- 69
2020-03-04 00:00:00 9.9 15 Oeste 36 Oeste 0 -- -- 67
2020-03-03 23:00:00 10.5 18 Oeste 39 Oeste 0 -- -- 64
2020-03-03 22:00:00 11.6 23 Oeste 57 Oeste 0 -- -- 57
2020-03-03 21:00:00 12.2 27 Oeste 55 Oeste 0 -- -- 57
2020-03-03 20:00:00 13 28 Oeste 64 Oeste 0 -- -- 54
2020-03-03 19:00:00 14 31 Oeste 62 Oeste 0 -- -- 55
2020-03-03 18:00:00 14.4 24 Oeste 53 Oeste 0 -- -- 64
2020-03-03 17:00:00 12.4 14 Oeste 26 Oeste 0 -- -- 76
2020-03-03 16:00:00 11.5 11 Oeste 20 Oeste 0 -- -- 76
2020-03-03 15:00:00 9.5 8 Noroeste 15 Noroeste 0 -- -- 77
2020-03-03 14:00:00 8.8 7 Noroeste 15 Oeste 0 -- -- 79
2020-03-03 13:00:00 7.7 6 Noroeste 13 Noroeste 0.6 -- -- 88
2020-03-03 12:00:00 7.7 6 Norte 9 Norte 1 -- -- 88
2020-03-03 11:00:00 7.3 0 Calma 8 Noroeste 0.6 -- -- 80
2020-03-03 10:00:00 7 3 Noroeste 9 Noroeste 0 -- -- 78
2020-03-03 09:00:00 5 0 Calma 6 Sudoeste 0 -- -- 85
2020-03-03 08:00:00 4 3 Sudoeste 10 Oeste 0 -- -- 85
2020-03-03 07:00:00 4.7 6 Oeste 12 Sudoeste 0 -- -- 79
2020-03-03 06:00:00 3.3 3 Norte 17 Noroeste 0 -- -- 83
2020-03-03 05:00:00 3.3 5 Noroeste 12 Sudoeste 0 -- -- 84
2020-03-03 04:00:00 4 5 Sur 21 Oeste 0 -- -- 81
2020-03-03 03:00:00 5.1 12 Noroeste 28 Oeste 0 -- -- 77
2020-03-03 02:00:00 5.6 14 Oeste 30 Oeste 0 -- -- 75
2020-03-03 01:00:00 5.5 10 Noroeste 26 Noroeste 0 -- -- 75
2020-03-03 00:00:00 6.1 14 Oeste 35 Oeste 0 -- -- 71
2020-03-02 23:00:00 6.3 13 Oeste 32 Oeste 0 -- -- 69
2020-03-02 22:00:00 6.9 15 Oeste 40 Oeste 0 -- -- 65
2020-03-02 21:00:00 7.4 21 Oeste 51 Oeste 0 -- -- 64
2020-03-02 20:00:00 8 24 Oeste 50 Oeste 0 -- -- 60
2020-03-02 19:00:00 8.9 18 Oeste 63 Oeste 0 -- -- 58
2020-03-02 18:00:00 10.7 26 Oeste 54 Oeste 0 -- -- 52
2020-03-02 17:00:00 12.3 28 Oeste 61 Oeste 0 -- -- 49
2020-03-02 16:00:00 13.4 27 Oeste 61 Oeste 0 -- -- 49
2020-03-02 15:00:00 13.6 36 Oeste 66 Oeste 0 -- -- 46
2020-03-02 14:00:00 13.7 35 Oeste 71 Oeste 0 -- -- 51
2020-03-02 13:00:00 13.5 35 Oeste 66 Oeste 0 -- -- 53
2020-03-02 12:00:00 12.6 36 Oeste 69 Oeste 0 -- -- 60
2020-03-02 11:00:00 11 35 Oeste 73 Oeste 0 -- -- 73
2020-03-02 10:00:00 12.4 34 Oeste 63 Sudoeste 0 -- -- 69
2020-03-02 09:00:00 10.6 19 Oeste 45 Sudoeste 0 -- -- 86
2020-03-02 08:00:00 9.6 18 Oeste -- -- 2 -- -- 92
2020-03-02 07:00:00 10.6 5 Nordeste 12 Nordeste 0 -- -- 93
2020-03-02 06:00:00 10.5 4 Nordeste 13 Nordeste 0 -- -- 93
2020-03-02 05:00:00 10.5 9 Nordeste 15 Nordeste 0.8 -- -- 93
2020-03-02 04:00:00 10.5 11 Nordeste 18 Este 2.4 -- -- 92
2020-03-02 03:00:00 11 10 Este 17 Este 0.8 -- -- 87
2020-03-02 02:00:00 10.8 10 Este 17 Nordeste 0.4 -- -- 90
2020-03-02 01:00:00 11 9 Nordeste 13 Este 1.4 -- -- 89
2020-03-02 00:00:00 10.9 4 Este 14 Este 0 -- -- 87